createdAt,value
2023-01-27T00:04:26.892Z,99081.4
2023-01-27T00:10:03.367Z,99084.9
2023-01-27T00:15:38.743Z,99084.1
2023-01-27T00:21:14.245Z,99073.6
2023-01-27T00:26:49.142Z,99069.7
2023-01-27T00:32:24.713Z,99066.5
2023-01-27T00:38:00.031Z,99062.7
2023-01-27T00:43:36.893Z,99051
2023-01-27T00:49:12.126Z,99047.7
2023-01-27T00:55:01.746Z,99039.1
2023-01-27T01:00:45.856Z,99039.5
2023-01-27T01:06:32.647Z,99035.5
2023-01-27T01:12:10.915Z,99029.4
2023-01-27T01:17:46.156Z,99023.5
2023-01-27T01:23:22.792Z,99010.2
2023-01-27T01:28:58.151Z,99017
2023-01-27T01:34:55.192Z,99024.5
2023-01-27T01:40:35.678Z,99017.1
2023-01-27T01:46:13.812Z,99018.3
2023-01-27T01:51:50.910Z,99022.2
2023-01-27T01:57:27.367Z,99021
2023-01-27T02:03:02.913Z,99017.6
2023-01-27T02:08:58.812Z,99010.6
2023-01-27T02:14:38.141Z,99009.3
2023-01-27T02:20:34.823Z,99007.9
2023-01-27T02:27:21.882Z,99002.6
2023-01-27T02:32:57.163Z,98997.3
2023-01-27T02:38:32.159Z,98988
2023-01-27T02:44:07.628Z,98978.2
2023-01-27T02:49:51.489Z,98971.2
2023-01-27T02:55:28.079Z,98963.8
2023-01-27T03:01:04.817Z,98956.9
2023-01-27T03:06:41.828Z,98955
2023-01-27T03:12:17.316Z,98947
2023-01-27T03:17:53.793Z,98949.8
2023-01-27T03:23:29.543Z,98946.6
2023-01-27T03:29:05.027Z,98940.5
2023-01-27T03:34:42.851Z,98943.6
2023-01-27T03:40:17.987Z,98947.7
2023-01-27T03:45:54.664Z,98944.8
2023-01-27T03:51:49.788Z,98953.5
2023-01-27T03:57:25.588Z,98961.5
2023-01-27T04:03:02.362Z,98961.6
2023-01-27T04:08:38.403Z,98960.4
2023-01-27T04:14:19.264Z,98962.7
2023-01-27T04:20:03.724Z,98958.9
2023-01-27T04:25:39.197Z,98956.2
2023-01-27T04:31:15.746Z,98959.8
2023-01-27T04:36:52.382Z,98954.8
2023-01-27T04:42:34.588Z,98954.4
2023-01-27T04:48:12.955Z,98958.7
2023-01-27T04:53:52.212Z,98959.3
2023-01-27T04:59:48.559Z,98965.2
2023-01-27T05:05:27.441Z,98964.4
2023-01-27T05:11:05.514Z,98967.3
2023-01-27T05:16:40.811Z,98967
2023-01-27T05:22:16.810Z,98975.2
2023-01-27T05:27:52.042Z,98976.1
2023-01-27T05:33:31.406Z,98972.5
2023-01-27T05:39:09.746Z,98981.3
2023-01-27T05:44:44.900Z,98986.9
2023-01-27T05:50:21.178Z,98994.6
2023-01-27T05:55:56.659Z,98999.6
2023-01-27T06:01:32.613Z,99000.7
2023-01-27T06:07:08.333Z,99003.6
2023-01-27T06:12:43.408Z,99002.6
2023-01-27T06:18:18.419Z,99006.2
2023-01-27T06:23:54.119Z,99008.6
2023-01-27T06:29:35.109Z,99015.7
2023-01-27T06:35:16.572Z,99022.3
2023-01-27T06:40:55.417Z,99032.5
2023-01-27T06:46:31.776Z,99038.9
2023-01-27T06:52:07.861Z,99046.4
2023-01-27T06:57:46.250Z,99050.3
2023-01-27T07:03:27.282Z,99050.9
2023-01-27T07:09:03.269Z,99050.3
2023-01-27T07:14:38.804Z,99048.5
2023-01-27T07:20:19.808Z,99051.5
2023-01-27T07:26:34.186Z,99061.6
2023-01-27T07:32:12.398Z,99060.9
2023-01-27T07:37:57.939Z,99061.7
2023-01-27T07:43:37.685Z,99061.5
2023-01-27T07:49:12.600Z,99062.8
2023-01-27T07:54:48.736Z,99063.8
2023-01-27T08:00:24.614Z,99065.6
2023-01-27T08:06:02.288Z,99064.9
2023-01-27T08:11:38.101Z,99063.1
2023-01-27T08:17:59.562Z,99059.9
2023-01-27T08:23:35.825Z,99066.1
2023-01-27T08:29:20.220Z,99067.8
2023-01-27T08:35:04.414Z,99073.4
2023-01-27T08:40:43.079Z,99082.1
2023-01-27T08:46:19.054Z,99083.1
2023-01-27T08:52:15.980Z,99073.7
2023-01-27T08:57:52.343Z,99071.2
2023-01-27T09:03:27.558Z,99078.1
2023-01-27T09:09:02.937Z,99078.9
2023-01-27T09:14:46.753Z,99080.4
2023-01-27T09:20:22.357Z,99084.7
2023-01-27T09:26:04.867Z,99091
2023-01-27T09:31:41.546Z,99095
2023-01-27T09:37:19.182Z,99100.3
2023-01-27T09:42:55.756Z,99109.6
2023-01-27T09:48:32.150Z,99112
2023-01-27T09:54:09.436Z,99110.8
2023-01-27T10:00:05.605Z,99117
2023-01-27T10:05:40.565Z,99118.1
2023-01-27T10:11:19.725Z,99116.3
2023-01-27T10:17:10.878Z,99117
2023-01-27T10:22:46.427Z,99118.5
2023-01-27T10:28:27.882Z,99121.7
2023-01-27T10:34:03.824Z,99117.9
2023-01-27T10:39:41.659Z,99115.5
2023-01-27T10:45:19.906Z,99114.7
2023-01-27T10:51:01.287Z,99109.6
2023-01-27T10:56:36.241Z,99111.2
2023-01-27T11:02:11.661Z,99108.6
2023-01-27T11:07:46.958Z,99105.7
2023-01-27T11:13:32.047Z,99096.2
2023-01-27T11:19:32.355Z,99091.3
2023-01-27T11:25:26.018Z,99077.2
2023-01-27T11:31:17.772Z,99070.8
2023-01-27T11:37:27.390Z,99066.4
2023-01-27T11:43:06.218Z,99060.1
2023-01-27T11:48:43.661Z,99053.4
2023-01-27T11:54:19.091Z,99040.5
2023-01-27T11:59:55.473Z,99038
2023-01-27T12:05:33.158Z,99033.2
2023-01-27T12:11:12.025Z,99025.3
2023-01-27T12:16:47.897Z,99021.7
2023-01-27T12:22:23.343Z,99017.4
2023-01-27T12:27:58.847Z,99013.6
2023-01-27T12:33:34.137Z,99012.6
2023-01-27T12:39:09.533Z,99004.3
2023-01-27T12:44:44.699Z,99002.3
2023-01-27T12:50:20.241Z,98999
2023-01-27T12:56:12.932Z,98995.9
2023-01-27T13:01:48.291Z,98988.5
2023-01-27T13:07:25.840Z,98990.4
2023-01-27T13:13:09.778Z,98988.2
2023-01-27T13:18:45.240Z,98986.5
2023-01-27T13:24:25.031Z,98982.4
2023-01-27T13:30:00.823Z,98980.1
2023-01-27T13:35:37.932Z,98974.8
2023-01-27T13:41:15.332Z,98966.7
2023-01-27T13:46:55.683Z,98968.2
2023-01-27T13:52:31.631Z,98964.6
2023-01-27T13:58:14.390Z,98961.4
2023-01-27T14:04:11.069Z,98968.7
2023-01-27T14:10:09.425Z,98967.1
2023-01-27T14:15:55.981Z,98970.9
2023-01-27T14:21:58.436Z,98976.1
2023-01-27T14:27:35.160Z,98975.7
2023-01-27T14:33:13.558Z,98982.9
2023-01-27T14:38:51.175Z,98986.7
2023-01-27T14:45:02.943Z,98990.7
2023-01-27T14:50:44.775Z,98995
2023-01-27T14:56:48.854Z,98994.8
2023-01-27T15:02:29.675Z,99000.7
2023-01-27T15:08:23.444Z,99005.4
2023-01-27T15:13:58.629Z,99007.6
2023-01-27T15:19:39.717Z,99014.5
2023-01-27T15:25:27.724Z,99021.9
2023-01-27T15:31:30.678Z,99029.2
2023-01-27T15:38:03.822Z,99037.4
2023-01-27T15:43:44.269Z,99032.7
2023-01-27T15:49:20.288Z,99042.5
2023-01-27T15:54:55.749Z,99044
2023-01-27T16:00:31.530Z,99050.1
2023-01-27T16:06:06.567Z,99055.3
2023-01-27T16:11:42.790Z,99058.4
2023-01-27T16:17:18.424Z,99061.2
2023-01-27T16:23:01.112Z,99062.1
2023-01-27T16:28:36.899Z,99073.7
2023-01-27T16:34:12.401Z,99079.4
2023-01-27T16:39:47.123Z,99083.1
2023-01-27T16:45:22.543Z,99083.8
2023-01-27T16:51:01.460Z,99090.9
2023-01-27T16:56:39.627Z,99098
2023-01-27T17:02:15.028Z,99106
2023-01-27T17:07:52.529Z,99109.8
2023-01-27T17:13:28.553Z,99111
2023-01-27T17:19:03.865Z,99111.7
2023-01-27T17:24:41.660Z,99115
2023-01-27T17:30:18.051Z,99116.4
2023-01-27T17:35:57.070Z,99120.2
2023-01-27T17:41:34.194Z,99124.6
2023-01-27T17:47:10.889Z,99129.5
2023-01-27T17:52:55.608Z,99133.7
2023-01-27T17:58:31.376Z,99131.7
2023-01-27T18:04:09.677Z,99131.8
2023-01-27T18:10:00.684Z,99130.1
2023-01-27T18:15:52.828Z,99127.7
2023-01-27T18:21:55.417Z,99123.6
2023-01-27T18:27:33.751Z,99130
2023-01-27T18:33:17.993Z,99141
2023-01-27T18:39:06.117Z,99140.3
2023-01-27T18:45:00.811Z,99139.5
2023-01-27T18:50:42.287Z,99145.1
2023-01-27T18:56:23.494Z,99149.5
2023-01-27T19:02:44.234Z,99150.5
2023-01-27T19:08:28.281Z,99152.4
2023-01-27T19:14:03.723Z,99152.6
2023-01-27T19:19:53.216Z,99150
2023-01-27T19:25:29.546Z,99155.9
2023-01-27T19:31:05.389Z,99161.3
2023-01-27T19:36:42.239Z,99163.4
2023-01-27T19:42:18.201Z,99171.1
2023-01-27T19:47:59.129Z,99170.2
2023-01-27T19:53:34.779Z,99171.7
2023-01-27T19:59:11.881Z,99173.4
2023-01-27T20:04:49.429Z,99175.7
2023-01-27T20:10:24.921Z,99182.2
2023-01-27T20:15:59.975Z,99174.6
2023-01-27T20:21:36.199Z,99177.8
2023-01-27T20:27:11.170Z,99177.4
2023-01-27T20:33:29.679Z,99177.8
2023-01-27T20:39:10.135Z,99175
2023-01-27T20:45:18.307Z,99171.5
2023-01-27T20:51:02.549Z,99171.8
2023-01-27T20:57:15.899Z,99164.2
2023-01-27T21:02:52.149Z,99162.4
2023-01-27T21:08:28.444Z,99166.2
2023-01-27T21:14:15.560Z,99162.6
2023-01-27T21:19:50.636Z,99169.2
2023-01-27T21:25:30.346Z,99169.1
2023-01-27T21:31:06.391Z,99177.5
2023-01-27T21:36:43.539Z,99183.5
2023-01-27T21:42:29.655Z,99184.8
2023-01-27T21:48:36.654Z,99182.8
2023-01-27T21:54:09.649Z,99185.1
2023-01-27T21:59:51.545Z,99189.3
2023-01-27T22:05:37.966Z,99190.6
2023-01-27T22:11:13.285Z,99191.4
2023-01-27T22:16:48.974Z,99191.3
2023-01-27T22:22:24.451Z,99198.1
2023-01-27T22:28:03.784Z,99197
2023-01-27T22:33:39.413Z,99197
2023-01-27T22:39:14.294Z,99196.3
2023-01-27T22:45:44.292Z,99197.5
2023-01-27T22:51:40.987Z,99198.1
2023-01-27T22:57:16.209Z,99198.9
2023-01-27T23:02:53.151Z,99200.5
2023-01-27T23:08:28.864Z,99204.9
2023-01-27T23:14:15.756Z,99209.6
2023-01-27T23:20:00.085Z,99209.6
2023-01-27T23:25:41.665Z,99207
2023-01-27T23:31:39.410Z,99197
2023-01-27T23:37:33.764Z,99193.3
2023-01-27T23:43:09.004Z,99203.7
2023-01-27T23:49:06.500Z,99203.7
2023-01-27T23:54:39.627Z,99202.5
